sensor_id;sensor_type;location;lat;lon;timestamp;pressure;altitude;pressure_sealevel;temperature;humidity
49645;BME280;36494;50.730;-1.932;2024-02-04T00:00:59;102397.94;;;10.43;100.00
49645;BME280;36494;50.730;-1.932;2024-02-04T00:03:24;102399.23;;;10.52;100.00
49645;BME280;36494;50.730;-1.932;2024-02-04T00:05:50;102396.84;;;10.56;100.00
49645;BME280;36494;50.730;-1.932;2024-02-04T00:08:15;102393.35;;;10.57;100.00
49645;BME280;36494;50.730;-1.932;2024-02-04T00:10:42;102393.45;;;10.58;100.00
49645;BME280;36494;50.730;-1.932;2024-02-04T00:13:07;102387.74;;;10.51;100.00
49645;BME280;36494;50.730;-1.932;2024-02-04T00:15:33;102387.84;;;10.58;100.00
49645;BME280;36494;50.730;-1.932;2024-02-04T00:17:58;102387.94;;;10.49;100.00
49645;BME280;36494;50.730;-1.932;2024-02-04T00:20:24;102382.44;;;10.51;100.00
49645;BME280;36494;50.730;-1.932;2024-02-04T00:22:49;102381.15;;;10.53;100.00
49645;BME280;36494;50.730;-1.932;2024-02-04T00:25:15;102378.51;;;10.52;100.00
49645;BME280;36494;50.730;-1.932;2024-02-04T00:27:40;102375.60;;;10.41;100.00
49645;BME280;36494;50.730;-1.932;2024-02-04T00:30:07;102365.82;;;10.39;100.00
49645;BME280;36494;50.730;-1.932;2024-02-04T00:32:32;102370.73;;;10.45;100.00
49645;BME280;36494;50.730;-1.932;2024-02-04T00:34:57;102369.03;;;10.49;100.00
49645;BME280;36494;50.730;-1.932;2024-02-04T00:37:22;102372.48;;;10.43;100.00
49645;BME280;36494;50.730;-1.932;2024-02-04T00:39:49;102368.93;;;10.43;100.00
49645;BME280;36494;50.730;-1.932;2024-02-04T00:42:15;102369.69;;;10.40;100.00
49645;BME280;36494;50.730;-1.932;2024-02-04T00:44:40;102373.55;;;10.43;100.00
49645;BME280;36494;50.730;-1.932;2024-02-04T00:47:06;102374.23;;;10.34;100.00
49645;BME280;36494;50.730;-1.932;2024-02-04T00:49:31;102375.94;;;10.44;100.00
49645;BME280;36494;50.730;-1.932;2024-02-04T00:51:57;102377.72;;;10.40;100.00
49645;BME280;36494;50.730;-1.932;2024-02-04T00:54:23;102375.68;;;10.40;100.00
49645;BME280;36494;50.730;-1.932;2024-02-04T00:56:48;102373.97;;;10.36;100.00
49645;BME280;36494;50.730;-1.932;2024-02-04T00:59:14;102372.64;;;10.39;100.00
49645;BME280;36494;50.730;-1.932;2024-02-04T01:01:39;102368.03;;;10.37;100.00
49645;BME280;36494;50.730;-1.932;2024-02-04T01:04:05;102359.73;;;10.34;100.00
49645;BME280;36494;50.730;-1.932;2024-02-04T01:06:30;102357.65;;;10.35;100.00
49645;BME280;36494;50.730;-1.932;2024-02-04T01:08:56;102357.19;;;10.37;100.00
49645;BME280;36494;50.730;-1.932;2024-02-04T01:11:22;102365.64;;;10.48;100.00
49645;BME280;36494;50.730;-1.932;2024-02-04T01:13:48;102363.22;;;10.44;100.00
49645;BME280;36494;50.730;-1.932;2024-02-04T01:16:13;102363.13;;;10.40;100.00
49645;BME280;36494;50.730;-1.932;2024-02-04T01:18:39;102362.85;;;10.45;100.00
49645;BME280;36494;50.730;-1.932;2024-02-04T01:21:05;102358.19;;;10.47;100.00
49645;BME280;36494;50.730;-1.932;2024-02-04T01:23:30;102357.38;;;10.41;100.00
49645;BME280;36494;50.730;-1.932;2024-02-04T01:25:55;102357.08;;;10.45;100.00
49645;BME280;36494;50.730;-1.932;2024-02-04T01:28:21;102354.01;;;10.49;100.00
49645;BME280;36494;50.730;-1.932;2024-02-04T01:30:46;102357.33;;;10.53;100.00
49645;BME280;36494;50.730;-1.932;2024-02-04T01:33:13;102353.64;;;10.54;100.00
49645;BME280;36494;50.730;-1.932;2024-02-04T01:35:39;102349.51;;;10.57;100.00
49645;BME280;36494;50.730;-1.932;2024-02-04T01:38:04;102349.61;;;10.49;100.00
49645;BME280;36494;50.730;-1.932;2024-02-04T01:40:30;102349.02;;;10.47;100.00
49645;BME280;36494;50.730;-1.932;2024-02-04T01:42:55;102347.89;;;10.55;100.00
49645;BME280;36494;50.730;-1.932;2024-02-04T01:45:23;102357.52;;;10.54;100.00
49645;BME280;36494;50.730;-1.932;2024-02-04T01:47:46;102355.25;;;10.50;100.00
49645;BME280;36494;50.730;-1.932;2024-02-04T01:50:12;102349.11;;;10.47;100.00
49645;BME280;36494;50.730;-1.932;2024-02-04T01:52:39;102348.59;;;10.52;100.00
49645;BME280;36494;50.730;-1.932;2024-02-04T01:55:05;102338.69;;;10.52;100.00
49645;BME280;36494;50.730;-1.932;2024-02-04T01:57:32;102337.49;;;10.52;100.00
49645;BME280;36494;50.730;-1.932;2024-02-04T01:59:56;102333.06;;;10.47;100.00
49645;BME280;36494;50.730;-1.932;2024-02-04T02:02:21;102327.54;;;10.52;100.00
49645;BME280;36494;50.730;-1.932;2024-02-04T02:04:46;102323.58;;;10.50;100.00
49645;BME280;36494;50.730;-1.932;2024-02-04T02:07:12;102317.61;;;10.47;100.00
49645;BME280;36494;50.730;-1.932;2024-02-04T02:09:37;102313.17;;;10.48;100.00
49645;BME280;36494;50.730;-1.932;2024-02-04T02:12:09;102313.67;;;10.51;100.00
49645;BME280;36494;50.730;-1.932;2024-02-04T02:14:32;102314.99;;;10.50;100.00
49645;BME280;36494;50.730;-1.932;2024-02-04T02:16:57;102318.24;;;10.46;100.00
49645;BME280;36494;50.730;-1.932;2024-02-04T02:19:31;102315.29;;;10.48;100.00
49645;BME280;36494;50.730;-1.932;2024-02-04T02:21:52;102310.67;;;10.48;100.00
49645;BME280;36494;50.730;-1.932;2024-02-04T02:24:14;102310.16;;;10.43;100.00
49645;BME280;36494;50.730;-1.932;2024-02-04T02:26:37;102311.38;;;10.45;100.00
49645;BME280;36494;50.730;-1.932;2024-02-04T02:29:02;102316.00;;;10.51;100.00
49645;BME280;36494;50.730;-1.932;2024-02-04T02:31:28;102317.84;;;10.37;100.00
49645;BME280;36494;50.730;-1.932;2024-02-04T02:33:54;102319.62;;;10.44;100.00
49645;BME280;36494;50.730;-1.932;2024-02-04T02:36:21;102317.76;;;10.38;100.00
49645;BME280;36494;50.730;-1.932;2024-02-04T02:38:51;102316.34;;;10.43;100.00
49645;BME280;36494;50.730;-1.932;2024-02-04T02:41:11;102317.86;;;10.36;100.00
49645;BME280;36494;50.730;-1.932;2024-02-04T02:43:39;102313.13;;;10.43;100.00
49645;BME280;36494;50.730;-1.932;2024-02-04T02:46:04;102310.19;;;10.40;100.00
49645;BME280;36494;50.730;-1.932;2024-02-04T02:48:27;102306.50;;;10.40;100.00
49645;BME280;36494;50.730;-1.932;2024-02-04T02:50:53;102302.31;;;10.41;100.00
49645;BME280;36494;50.730;-1.932;2024-02-04T02:53:18;102302.53;;;10.37;100.00
49645;BME280;36494;50.730;-1.932;2024-02-04T02:55:44;102304.97;;;10.43;100.00
49645;BME280;36494;50.730;-1.932;2024-02-04T02:58:09;102304.77;;;10.43;100.00
49645;BME280;36494;50.730;-1.932;2024-02-04T03:00:35;102306.19;;;10.38;100.00
49645;BME280;36494;50.730;-1.932;2024-02-04T03:03:00;102306.67;;;10.39;100.00
49645;BME280;36494;50.730;-1.932;2024-02-04T03:05:26;102300.54;;;10.39;100.00
49645;BME280;36494;50.730;-1.932;2024-02-04T03:07:51;102304.37;;;10.45;100.00
49645;BME280;36494;50.730;-1.932;2024-02-04T03:10:17;102304.24;;;10.44;100.00
49645;BME280;36494;50.730;-1.932;2024-02-04T03:12:43;102303.26;;;10.47;100.00
49645;BME280;36494;50.730;-1.932;2024-02-04T03:15:08;102307.23;;;10.46;100.00
49645;BME280;36494;50.730;-1.932;2024-02-04T03:17:34;102301.80;;;10.50;100.00
49645;BME280;36494;50.730;-1.932;2024-02-04T03:19:59;102298.68;;;10.42;100.00
49645;BME280;36494;50.730;-1.932;2024-02-04T03:22:26;102292.61;;;10.50;100.00
49645;BME280;36494;50.730;-1.932;2024-02-04T03:24:51;102292.77;;;10.46;100.00
49645;BME280;36494;50.730;-1.932;2024-02-04T03:27:17;102290.75;;;10.52;100.00
49645;BME280;36494;50.730;-1.932;2024-02-04T03:29:42;102292.23;;;10.57;100.00
49645;BME280;36494;50.730;-1.932;2024-02-04T03:32:08;102288.83;;;10.52;100.00
49645;BME280;36494;50.730;-1.932;2024-02-04T03:34:33;102293.17;;;10.47;100.00
49645;BME280;36494;50.730;-1.932;2024-02-04T03:36:59;102292.10;;;10.50;100.00
49645;BME280;36494;50.730;-1.932;2024-02-04T03:39:24;102296.36;;;10.47;100.00
49645;BME280;36494;50.730;-1.932;2024-02-04T03:41:49;102297.37;;;10.49;100.00
49645;BME280;36494;50.730;-1.932;2024-02-04T03:44:15;102298.35;;;10.55;100.00
49645;BME280;36494;50.730;-1.932;2024-02-04T03:46:41;102297.81;;;10.58;100.00
49645;BME280;36494;50.730;-1.932;2024-02-04T03:49:06;102296.54;;;10.56;100.00
49645;BME280;36494;50.730;-1.932;2024-02-04T03:51:31;102297.34;;;10.52;100.00
49645;BME280;36494;50.730;-1.932;2024-02-04T03:53:57;102295.66;;;10.54;100.00
49645;BME280;36494;50.730;-1.932;2024-02-04T03:56:22;102293.48;;;10.50;100.00
49645;BME280;36494;50.730;-1.932;2024-02-04T03:58:51;102287.56;;;10.49;100.00
49645;BME280;36494;50.730;-1.932;2024-02-04T04:01:14;102289.40;;;10.55;100.00
49645;BME280;36494;50.730;-1.932;2024-02-04T04:03:40;102289.22;;;10.55;100.00
49645;BME280;36494;50.730;-1.932;2024-02-04T04:06:05;102287.69;;;10.58;100.00
49645;BME280;36494;50.730;-1.932;2024-02-04T04:08:31;102286.55;;;10.41;100.00
49645;BME280;36494;50.730;-1.932;2024-02-04T04:10:56;102285.82;;;10.50;100.00
49645;BME280;36494;50.730;-1.932;2024-02-04T04:13:22;102288.11;;;10.45;100.00
49645;BME280;36494;50.730;-1.932;2024-02-04T04:15:47;102291.16;;;10.45;100.00
49645;BME280;36494;50.730;-1.932;2024-02-04T04:18:13;102287.18;;;10.48;100.00
49645;BME280;36494;50.730;-1.932;2024-02-04T04:20:39;102288.88;;;10.51;100.00
49645;BME280;36494;50.730;-1.932;2024-02-04T04:23:04;102288.34;;;10.48;100.00
49645;BME280;36494;50.730;-1.932;2024-02-04T04:25:30;102286.42;;;10.46;100.00
49645;BME280;36494;50.730;-1.932;2024-02-04T04:27:56;102284.43;;;10.46;100.00
49645;BME280;36494;50.730;-1.932;2024-02-04T04:30:21;102283.56;;;10.54;100.00
49645;BME280;36494;50.730;-1.932;2024-02-04T04:32:47;102279.46;;;10.53;100.00
49645;BME280;36494;50.730;-1.932;2024-02-04T04:35:12;102274.72;;;10.52;100.00
49645;BME280;36494;50.730;-1.932;2024-02-04T04:37:39;102273.95;;;10.49;100.00
49645;BME280;36494;50.730;-1.932;2024-02-04T04:40:05;102274.17;;;10.49;100.00
49645;BME280;36494;50.730;-1.932;2024-02-04T04:42:30;102274.92;;;10.50;100.00
49645;BME280;36494;50.730;-1.932;2024-02-04T04:44:55;102276.10;;;10.47;100.00
49645;BME280;36494;50.730;-1.932;2024-02-04T04:47:21;102273.54;;;10.45;100.00
49645;BME280;36494;50.730;-1.932;2024-02-04T04:49:46;102267.58;;;10.47;100.00
49645;BME280;36494;50.730;-1.932;2024-02-04T04:52:12;102262.14;;;10.57;100.00
49645;BME280;36494;50.730;-1.932;2024-02-04T04:54:37;102260.87;;;10.62;100.00
49645;BME280;36494;50.730;-1.932;2024-02-04T04:57:03;102259.15;;;10.56;100.00
49645;BME280;36494;50.730;-1.932;2024-02-04T04:59:28;102258.40;;;10.57;100.00
49645;BME280;36494;50.730;-1.932;2024-02-04T05:01:54;102260.63;;;10.58;100.00
49645;BME280;36494;50.730;-1.932;2024-02-04T05:04:19;102261.05;;;10.55;100.00
49645;BME280;36494;50.730;-1.932;2024-02-04T05:06:44;102263.99;;;10.47;100.00
49645;BME280;36494;50.730;-1.932;2024-02-04T05:09:10;102261.62;;;10.48;100.00
49645;BME280;36494;50.730;-1.932;2024-02-04T05:11:37;102263.58;;;10.39;100.00
49645;BME280;36494;50.730;-1.932;2024-02-04T05:14:02;102262.51;;;10.43;100.00
49645;BME280;36494;50.730;-1.932;2024-02-04T05:16:27;102266.07;;;10.49;100.00
49645;BME280;36494;50.730;-1.932;2024-02-04T05:18:53;102269.43;;;10.43;100.00
49645;BME280;36494;50.730;-1.932;2024-02-04T05:21:18;102272.36;;;10.45;100.00
49645;BME280;36494;50.730;-1.932;2024-02-04T05:23:47;102272.06;;;10.42;100.00
49645;BME280;36494;50.730;-1.932;2024-02-04T05:26:10;102267.34;;;10.44;100.00
49645;BME280;36494;50.730;-1.932;2024-02-04T05:28:35;102267.75;;;10.42;100.00
49645;BME280;36494;50.730;-1.932;2024-02-04T05:31:01;102269.14;;;10.45;100.00
49645;BME280;36494;50.730;-1.932;2024-02-04T05:33:26;102266.03;;;10.44;100.00
49645;BME280;36494;50.730;-1.932;2024-02-04T05:35:52;102271.12;;;10.47;100.00
49645;BME280;36494;50.730;-1.932;2024-02-04T05:38:17;102270.45;;;10.47;100.00
49645;BME280;36494;50.730;-1.932;2024-02-04T05:40:44;102265.44;;;10.44;100.00
49645;BME280;36494;50.730;-1.932;2024-02-04T05:43:10;102260.19;;;10.46;100.00
49645;BME280;36494;50.730;-1.932;2024-02-04T05:45:35;102258.92;;;10.46;100.00
49645;BME280;36494;50.730;-1.932;2024-02-04T05:48:00;102260.50;;;10.48;100.00
49645;BME280;36494;50.730;-1.932;2024-02-04T05:50:27;102260.79;;;10.44;100.00
49645;BME280;36494;50.730;-1.932;2024-02-04T05:52:52;102255.09;;;10.49;100.00
49645;BME280;36494;50.730;-1.932;2024-02-04T05:55:19;102251.20;;;10.51;100.00
49645;BME280;36494;50.730;-1.932;2024-02-04T05:57:44;102254.97;;;10.46;100.00
49645;BME280;36494;50.730;-1.932;2024-02-04T06:00:11;102257.11;;;10.45;100.00
49645;BME280;36494;50.730;-1.932;2024-02-04T06:02:35;102253.91;;;10.53;100.00
49645;BME280;36494;50.730;-1.932;2024-02-04T06:05:01;102250.68;;;10.56;100.00
49645;BME280;36494;50.730;-1.932;2024-02-04T06:07:27;102248.84;;;10.53;100.00
49645;BME280;36494;50.730;-1.932;2024-02-04T06:09:53;102246.60;;;10.51;100.00
49645;BME280;36494;50.730;-1.932;2024-02-04T06:12:20;102245.23;;;10.52;100.00
49645;BME280;36494;50.730;-1.932;2024-02-04T06:14:44;102237.50;;;10.48;100.00
49645;BME280;36494;50.730;-1.932;2024-02-04T06:17:09;102230.32;;;10.50;100.00
49645;BME280;36494;50.730;-1.932;2024-02-04T06:19:35;102227.66;;;10.53;100.00
49645;BME280;36494;50.730;-1.932;2024-02-04T06:22:01;102220.34;;;10.56;100.00
49645;BME280;36494;50.730;-1.932;2024-02-04T06:24:27;102214.16;;;10.54;100.00
49645;BME280;36494;50.730;-1.932;2024-02-04T06:26:52;102217.35;;;10.51;100.00
49645;BME280;36494;50.730;-1.932;2024-02-04T06:29:18;102214.26;;;10.55;100.00
49645;BME280;36494;50.730;-1.932;2024-02-04T06:31:44;102212.55;;;10.53;100.00
49645;BME280;36494;50.730;-1.932;2024-02-04T06:34:09;102215.95;;;10.45;100.00
49645;BME280;36494;50.730;-1.932;2024-02-04T06:36:34;102218.00;;;10.50;100.00
49645;BME280;36494;50.730;-1.932;2024-02-04T06:39:00;102224.08;;;10.46;100.00
49645;BME280;36494;50.730;-1.932;2024-02-04T06:41:25;102223.49;;;10.50;100.00
49645;BME280;36494;50.730;-1.932;2024-02-04T06:43:50;102219.21;;;10.43;100.00
49645;BME280;36494;50.730;-1.932;2024-02-04T06:46:24;102213.86;;;10.42;100.00
49645;BME280;36494;50.730;-1.932;2024-02-04T06:48:41;102216.43;;;10.47;100.00
49645;BME280;36494;50.730;-1.932;2024-02-04T06:51:07;102212.12;;;10.44;100.00
49645;BME280;36494;50.730;-1.932;2024-02-04T06:53:32;102211.37;;;10.43;100.00
49645;BME280;36494;50.730;-1.932;2024-02-04T06:55:58;102208.73;;;10.41;100.00
49645;BME280;36494;50.730;-1.932;2024-02-04T06:58:23;102212.16;;;10.36;100.00
49645;BME280;36494;50.730;-1.932;2024-02-04T07:00:50;102209.75;;;10.36;100.00
49645;BME280;36494;50.730;-1.932;2024-02-04T07:03:14;102212.48;;;10.27;100.00
49645;BME280;36494;50.730;-1.932;2024-02-04T07:05:40;102211.31;;;10.23;100.00
49645;BME280;36494;50.730;-1.932;2024-02-04T07:08:06;102210.23;;;10.21;100.00
49645;BME280;36494;50.730;-1.932;2024-02-04T07:10:32;102208.19;;;10.17;100.00
49645;BME280;36494;50.730;-1.932;2024-02-04T07:12:59;102209.76;;;10.22;100.00
49645;BME280;36494;50.730;-1.932;2024-02-04T07:15:22;102210.51;;;10.12;100.00
49645;BME280;36494;50.730;-1.932;2024-02-04T07:17:48;102208.56;;;10.16;100.00
49645;BME280;36494;50.730;-1.932;2024-02-04T07:20:13;102213.19;;;10.05;100.00
49645;BME280;36494;50.730;-1.932;2024-02-04T07:22:39;102209.87;;;10.15;100.00
49645;BME280;36494;50.730;-1.932;2024-02-04T07:25:04;102212.12;;;10.09;100.00
49645;BME280;36494;50.730;-1.932;2024-02-04T07:27:29;102209.91;;;10.06;100.00
49645;BME280;36494;50.730;-1.932;2024-02-04T07:29:55;102212.65;;;10.08;100.00
49645;BME280;36494;50.730;-1.932;2024-02-04T07:32:21;102210.40;;;10.07;100.00
49645;BME280;36494;50.730;-1.932;2024-02-04T07:34:47;102213.66;;;10.09;100.00
49645;BME280;36494;50.730;-1.932;2024-02-04T07:37:13;102219.79;;;10.09;100.00
49645;BME280;36494;50.730;-1.932;2024-02-04T07:39:39;102217.78;;;10.03;100.00
49645;BME280;36494;50.730;-1.932;2024-02-04T07:42:04;102217.30;;;10.06;100.00
49645;BME280;36494;50.730;-1.932;2024-02-04T07:44:30;102215.85;;;10.09;100.00
49645;BME280;36494;50.730;-1.932;2024-02-04T07:46:56;102211.36;;;10.13;100.00
49645;BME280;36494;50.730;-1.932;2024-02-04T07:49:25;102207.51;;;10.10;100.00
49645;BME280;36494;50.730;-1.932;2024-02-04T07:51:47;102206.03;;;10.12;100.00
49645;BME280;36494;50.730;-1.932;2024-02-04T07:54:13;102207.89;;;10.07;100.00
49645;BME280;36494;50.730;-1.932;2024-02-04T07:56:39;102212.22;;;10.15;100.00
49645;BME280;36494;50.730;-1.932;2024-02-04T07:59:04;102214.73;;;10.08;100.00
49645;BME280;36494;50.730;-1.932;2024-02-04T08:01:32;102214.45;;;10.16;100.00
49645;BME280;36494;50.730;-1.932;2024-02-04T08:03:55;102213.86;;;10.10;100.00
49645;BME280;36494;50.730;-1.932;2024-02-04T08:06:20;102211.90;;;10.17;100.00
49645;BME280;36494;50.730;-1.932;2024-02-04T08:08:45;102212.69;;;10.08;100.00
49645;BME280;36494;50.730;-1.932;2024-02-04T08:11:16;102209.53;;;10.18;100.00
49645;BME280;36494;50.730;-1.932;2024-02-04T08:13:38;102212.39;;;10.20;100.00
49645;BME280;36494;50.730;-1.932;2024-02-04T08:16:02;102209.47;;;10.20;100.00
49645;BME280;36494;50.730;-1.932;2024-02-04T08:18:28;102207.68;;;10.15;100.00
49645;BME280;36494;50.730;-1.932;2024-02-04T08:20:53;102210.11;;;10.18;100.00
49645;BME280;36494;50.730;-1.932;2024-02-04T08:23:18;102209.88;;;10.19;100.00
49645;BME280;36494;50.730;-1.932;2024-02-04T08:25:47;102214.06;;;10.18;100.00
49645;BME280;36494;50.730;-1.932;2024-02-04T08:28:09;102215.32;;;10.15;100.00
49645;BME280;36494;50.730;-1.932;2024-02-04T08:30:35;102217.17;;;10.17;100.00
49645;BME280;36494;50.730;-1.932;2024-02-04T08:33:04;102216.87;;;10.11;100.00
49645;BME280;36494;50.730;-1.932;2024-02-04T08:35:26;102220.35;;;10.19;100.00
49645;BME280;36494;50.730;-1.932;2024-02-04T08:37:52;102221.72;;;10.15;100.00
49645;BME280;36494;50.730;-1.932;2024-02-04T08:40:17;102219.12;;;10.13;100.00
49645;BME280;36494;50.730;-1.932;2024-02-04T08:42:42;102220.87;;;10.19;100.00
49645;BME280;36494;50.730;-1.932;2024-02-04T08:45:08;102225.52;;;10.20;100.00
49645;BME280;36494;50.730;-1.932;2024-02-04T08:47:33;102222.65;;;10.31;100.00
49645;BME280;36494;50.730;-1.932;2024-02-04T08:49:58;102221.42;;;10.21;100.00
49645;BME280;36494;50.730;-1.932;2024-02-04T08:52:23;102219.28;;;10.26;100.00
49645;BME280;36494;50.730;-1.932;2024-02-04T08:54:48;102219.31;;;10.28;100.00
49645;BME280;36494;50.730;-1.932;2024-02-04T08:57:14;102212.43;;;10.25;100.00
49645;BME280;36494;50.730;-1.932;2024-02-04T08:59:39;102211.43;;;10.30;100.00
49645;BME280;36494;50.730;-1.932;2024-02-04T09:02:05;102214.70;;;10.23;100.00
49645;BME280;36494;50.730;-1.932;2024-02-04T09:04:29;102216.29;;;10.33;100.00
49645;BME280;36494;50.730;-1.932;2024-02-04T09:06:54;102221.35;;;10.27;100.00
49645;BME280;36494;50.730;-1.932;2024-02-04T09:09:20;102223.09;;;10.37;100.00
49645;BME280;36494;50.730;-1.932;2024-02-04T09:11:46;102227.48;;;10.41;100.00
49645;BME280;36494;50.730;-1.932;2024-02-04T09:14:11;102231.90;;;10.40;100.00
49645;BME280;36494;50.730;-1.932;2024-02-04T09:16:37;102242.75;;;10.49;100.00
49645;BME280;36494;50.730;-1.932;2024-02-04T09:19:02;102237.72;;;10.46;100.00
49645;BME280;36494;50.730;-1.932;2024-02-04T09:21:27;102242.64;;;10.47;100.00
49645;BME280;36494;50.730;-1.932;2024-02-04T09:23:53;102240.28;;;10.53;100.00
49645;BME280;36494;50.730;-1.932;2024-02-04T09:26:18;102239.03;;;10.58;100.00
49645;BME280;36494;50.730;-1.932;2024-02-04T09:28:43;102238.27;;;10.64;100.00
49645;BME280;36494;50.730;-1.932;2024-02-04T09:31:09;102235.98;;;10.66;100.00
49645;BME280;36494;50.730;-1.932;2024-02-04T09:33:34;102241.54;;;10.61;100.00
49645;BME280;36494;50.730;-1.932;2024-02-04T09:36:00;102238.32;;;10.64;100.00
49645;BME280;36494;50.730;-1.932;2024-02-04T09:38:25;102241.67;;;10.66;100.00
49645;BME280;36494;50.730;-1.932;2024-02-04T09:40:50;102239.89;;;10.64;100.00
49645;BME280;36494;50.730;-1.932;2024-02-04T09:43:16;102241.67;;;10.67;100.00
49645;BME280;36494;50.730;-1.932;2024-02-04T09:45:41;102238.83;;;10.67;100.00
49645;BME280;36494;50.730;-1.932;2024-02-04T09:48:08;102242.20;;;10.66;100.00
49645;BME280;36494;50.730;-1.932;2024-02-04T09:50:32;102246.68;;;10.63;100.00
49645;BME280;36494;50.730;-1.932;2024-02-04T09:52:59;102249.29;;;10.65;100.00
49645;BME280;36494;50.730;-1.932;2024-02-04T09:55:23;102251.62;;;10.72;100.00
49645;BME280;36494;50.730;-1.932;2024-02-04T09:57:48;102254.44;;;10.70;100.00
49645;BME280;36494;50.730;-1.932;2024-02-04T10:00:13;102255.70;;;10.73;100.00
49645;BME280;36494;50.730;-1.932;2024-02-04T10:02:41;102254.39;;;10.79;100.00
49645;BME280;36494;50.730;-1.932;2024-02-04T10:05:04;102252.72;;;10.82;100.00
49645;BME280;36494;50.730;-1.932;2024-02-04T10:07:29;102254.67;;;10.82;100.00
49645;BME280;36494;50.730;-1.932;2024-02-04T10:09:55;102255.79;;;10.84;100.00
49645;BME280;36494;50.730;-1.932;2024-02-04T10:12:20;102256.10;;;10.92;100.00
49645;BME280;36494;50.730;-1.932;2024-02-04T10:14:46;102257.15;;;10.97;100.00
49645;BME280;36494;50.730;-1.932;2024-02-04T10:17:13;102262.66;;;11.08;100.00
49645;BME280;36494;50.730;-1.932;2024-02-04T10:19:36;102263.64;;;11.00;100.00
49645;BME280;36494;50.730;-1.932;2024-02-04T10:22:02;102264.51;;;11.00;100.00
49645;BME280;36494;50.730;-1.932;2024-02-04T10:24:27;102264.38;;;10.98;100.00
49645;BME280;36494;50.730;-1.932;2024-02-04T10:26:56;102264.21;;;10.95;100.00
49645;BME280;36494;50.730;-1.932;2024-02-04T10:29:18;102269.72;;;11.03;100.00
49645;BME280;36494;50.730;-1.932;2024-02-04T10:31:44;102270.99;;;11.03;100.00
49645;BME280;36494;50.730;-1.932;2024-02-04T10:34:10;102271.00;;;11.11;100.00
49645;BME280;36494;50.730;-1.932;2024-02-04T10:36:35;102269.92;;;11.12;100.00
49645;BME280;36494;50.730;-1.932;2024-02-04T10:39:05;102270.37;;;11.15;100.00
49645;BME280;36494;50.730;-1.932;2024-02-04T10:41:29;102275.08;;;11.25;100.00
49645;BME280;36494;50.730;-1.932;2024-02-04T10:43:53;102277.28;;;11.20;100.00
49645;BME280;36494;50.730;-1.932;2024-02-04T10:46:19;102277.80;;;11.19;100.00
49645;BME280;36494;50.730;-1.932;2024-02-04T10:48:45;102277.30;;;11.20;100.00
49645;BME280;36494;50.730;-1.932;2024-02-04T10:51:12;102278.06;;;11.24;100.00
49645;BME280;36494;50.730;-1.932;2024-02-04T10:53:34;102276.20;;;11.27;100.00
49645;BME280;36494;50.730;-1.932;2024-02-04T10:56:03;102279.93;;;11.31;100.00
49645;BME280;36494;50.730;-1.932;2024-02-04T10:58:25;102285.33;;;11.37;100.00
49645;BME280;36494;50.730;-1.932;2024-02-04T11:00:51;102284.66;;;11.40;100.00
49645;BME280;36494;50.730;-1.932;2024-02-04T11:03:20;102284.29;;;11.43;100.00
49645;BME280;36494;50.730;-1.932;2024-02-04T11:05:42;102284.53;;;11.41;100.00
49645;BME280;36494;50.730;-1.932;2024-02-04T11:08:09;102277.52;;;11.44;100.00
49645;BME280;36494;50.730;-1.932;2024-02-04T11:10:34;102276.46;;;11.50;100.00
49645;BME280;36494;50.730;-1.932;2024-02-04T11:13:00;102270.98;;;11.56;100.00
49645;BME280;36494;50.730;-1.932;2024-02-04T11:15:29;102270.88;;;11.57;100.00
49645;BME280;36494;50.730;-1.932;2024-02-04T11:20:27;102265.60;;;11.65;100.00
49645;BME280;36494;50.730;-1.932;2024-02-04T11:23:00;102266.06;;;11.72;100.00
49645;BME280;36494;50.730;-1.932;2024-02-04T11:25:19;102264.45;;;11.89;100.00
49645;BME280;36494;50.730;-1.932;2024-02-04T11:27:35;102261.41;;;11.80;100.00
49645;BME280;36494;50.730;-1.932;2024-02-04T11:29:59;102260.72;;;11.87;100.00
49645;BME280;36494;50.730;-1.932;2024-02-04T11:32:24;102252.85;;;11.90;100.00
49645;BME280;36494;50.730;-1.932;2024-02-04T11:34:50;102255.92;;;12.04;100.00
49645;BME280;36494;50.730;-1.932;2024-02-04T11:37:16;102253.66;;;12.09;100.00
49645;BME280;36494;50.730;-1.932;2024-02-04T11:39:49;102248.78;;;12.24;100.00
49645;BME280;36494;50.730;-1.932;2024-02-04T11:42:14;102248.52;;;12.21;100.00
49645;BME280;36494;50.730;-1.932;2024-02-04T11:44:31;102239.63;;;12.21;100.00
49645;BME280;36494;50.730;-1.932;2024-02-04T11:46:57;102241.45;;;12.28;100.00
49645;BME280;36494;50.730;-1.932;2024-02-04T11:49:25;102236.91;;;12.31;100.00
49645;BME280;36494;50.730;-1.932;2024-02-04T11:51:48;102237.38;;;12.33;100.00
49645;BME280;36494;50.730;-1.932;2024-02-04T11:54:14;102228.91;;;12.26;100.00
49645;BME280;36494;50.730;-1.932;2024-02-04T11:56:38;102228.78;;;12.30;100.00
49645;BME280;36494;50.730;-1.932;2024-02-04T11:59:05;102221.17;;;12.18;100.00
49645;BME280;36494;50.730;-1.932;2024-02-04T12:01:31;102217.31;;;12.30;100.00
49645;BME280;36494;50.730;-1.932;2024-02-04T12:03:55;102214.37;;;12.30;100.00
49645;BME280;36494;50.730;-1.932;2024-02-04T12:06:20;102211.90;;;12.43;100.00
49645;BME280;36494;50.730;-1.932;2024-02-04T12:08:46;102208.26;;;12.43;100.00
49645;BME280;36494;50.730;-1.932;2024-02-04T12:11:11;102204.05;;;12.43;100.00
49645;BME280;36494;50.730;-1.932;2024-02-04T12:13:38;102200.46;;;12.51;100.00
49645;BME280;36494;50.730;-1.932;2024-02-04T12:16:05;102198.57;;;12.53;100.00
49645;BME280;36494;50.730;-1.932;2024-02-04T12:18:28;102192.89;;;12.58;100.00
49645;BME280;36494;50.730;-1.932;2024-02-04T12:20:54;102187.54;;;12.46;100.00
49645;BME280;36494;50.730;-1.932;2024-02-04T12:23:20;102188.73;;;12.51;100.00